Flight Track Log - Related Links

Times and Time Zones

All times are in EST time to prevent confusion due to time zone crossing. See the AAY861 flight status page for this flight to view local times or setup timezone preferences in your user account.

Time Position Orientation Groundspeed Altitude Reporting Facility
EST Latitude Longitude Course Direction KTS MPH feet Rate Location/Type
Mon 09:41:55 AM 38.0517 -84.5861 169° South 153 176 2,300  Level Indianapolis Center
Mon 09:47:35 AM 37.6333 -84.4821 179° South 355 409 15,300 2,261 Climbing FlightAware ADS-B
Mon 09:48:33 AM 37.5393 -84.4806 179° South 375 432 17,300 2,194 Climbing FlightAware ADS-B
Mon 09:49:08 AM 37.4767 -84.4796 179° South 378 435 18,700 1,958 Climbing FlightAware ADS-B
Mon 09:52:29 AM 37.1042 -84.4750 179° South 420 483 25,000 1,856 Climbing FlightAware ADS-B
Mon 09:53:46 AM 36.9500 -84.4732 179° South 443 510 27,300 1,268 Climbing FlightAware ADS-B
Mon 09:59:35 AM 36.2096 -84.4643 179° South 452 520 34,000 1,065 Climbing FlightAware ADS-B
Mon 10:00:26 AM 36.1150 -84.4636 179° South 454 522 34,400 714 Climbing Indianapolis Center
Mon 10:00:59 AM 36.0367 -84.4650 181° South 457 526 35,000 99 Climbing Atlanta Center
Mon 10:06:30 AM 35.3102 -84.4537 181° South 454 522 35,000  Level FlightAware ADS-B (KDZJ)
Mon 10:07:12 AM 35.2220 -84.4527 179° South 464 534 35,000  Level FlightAware ADS-B (KDZJ)
Mon 10:07:51 AM 35.1365 -84.4516 179° South 464 534 35,000  Level FlightAware ADS-B (KDZJ)
Mon 10:08:30 AM 35.0536 -84.4507 179° South 463 533 35,000  Level FlightAware ADS-B (KDZJ)
Mon 10:09:11 AM 34.9649 -84.4497 179° South 454 522 35,000  Level FlightAware ADS-B (KDZJ)
Mon 10:09:50 AM 34.8821 -84.4486 179° South 453 521 35,000  Level FlightAware ADS-B (KDZJ)
Mon 10:10:29 AM 34.7983 -84.4477 179° South 452 520 35,000  Level FlightAware ADS-B (KDZJ)
Mon 10:11:11 AM 34.7095 -84.4466 179° South 452 520 35,000  Level FlightAware ADS-B (KDZJ)
Mon 10:11:51 AM 34.6230 -84.4457 179° South 454 522 35,000  Level FlightAware ADS-B (KDZJ)
Mon 10:12:31 AM 34.5376 -84.4447 179° South 463 533 35,000  Level FlightAware ADS-B (KDZJ)
Mon 10:13:11 AM 34.4514 -84.4437 179° South 463 533 35,000  Level FlightAware ADS-B (KDZJ)
Mon 10:13:51 AM 34.3666 -84.4427 179° South 454 522 35,000  Level FlightAware ADS-B (KDZJ)
Mon 10:14:32 AM 34.2788 -84.4417 179° South 454 522 35,000  Level FlightAware ADS-B (KDZJ)
Mon 10:15:11 AM 34.1942 -84.4407 179° South 464 534 35,000  Level FlightAware ADS-B (KDZJ)
Mon 10:15:52 AM 34.1073 -84.4397 179° South 465 535 35,000  Level FlightAware ADS-B (KDZJ)
Mon 10:16:32 AM 34.0215 -84.4387 179° South 466 536 35,000  Level FlightAware ADS-B (KDZJ)
Mon 10:17:10 AM 33.9378 -84.4378 179° South 466 536 35,000  Level FlightAware ADS-B (KDZJ)
Mon 10:17:59 AM 33.8625 -84.4392 179° South 468 539 35,000  Level Atlanta Center
Mon 10:18:59 AM 33.7331 -84.4383 180° South 474 545 35,000  Level Atlanta Center
Mon 10:19:59 AM 33.6036 -84.4353 179° South 469 540 35,000  Level Atlanta Center
Mon 10:20:59 AM 33.4889 -84.4347 180° South 460 529 35,000  Level Atlanta Center
Mon 10:21:59 AM 33.3575 -84.4342 180° South 460 529 35,000  Level Atlanta Center
Mon 10:22:59 AM 33.2156 -84.4311 179° South 460 529 35,000  Level Atlanta Center
Mon 10:23:59 AM 33.0861 -84.4306 180° South 460 529 35,000  Level Atlanta Center
Mon 10:24:59 AM 32.9586 -84.4250 178° South 460 529 35,000  Level Atlanta Center
Mon 10:25:59 AM 32.8294 -84.4244 180° South 460 529 35,000  Level Atlanta Center
Mon 10:26:59 AM 32.7019 -84.4189 178° South 460 529 35,000  Level Atlanta Center
Mon 10:27:59 AM 32.5706 -84.4158 179° South 460 529 35,000  Level Atlanta Center
Mon 10:28:59 AM 32.4411 -84.4131 179° South 460 529 35,000  Level Atlanta Center
Mon 10:30:58 AM 32.1825 -84.4072 179° South 455 524 35,000  Level Jacksonville Center
Mon 10:31:58 AM 32.0531 -84.4025 178° South 461 531 35,000  Level Jacksonville Center
Mon 10:32:58 AM 31.9258 -84.4006 179° South 461 531 35,000  Level Jacksonville Center
Mon 10:33:58 AM 31.7964 -84.3983 179° South 461 531 35,000  Level Jacksonville Center
Mon 10:34:58 AM 31.6650 -84.3814 174° South 461 531 35,000  Level Jacksonville Center
Mon 10:35:58 AM 31.5361 -84.3453 167° South 466 536 35,000  Level Jacksonville Center
Mon 10:36:58 AM 31.4050 -84.3092 167° South 477 549 35,000  Level Jacksonville Center
Mon 10:37:58 AM 31.2736 -84.2756 168° South 477 549 35,000  Level Jacksonville Center
Mon 10:38:58 AM 31.1447 -84.2422 168° South 482 555 35,000  Level Jacksonville Center
Mon 10:39:58 AM 31.0156 -84.2064 167° South 482 555 35,000  Level Jacksonville Center
Mon 10:40:58 AM 30.8864 -84.1731 168° South 482 555 35,000  Level Jacksonville Center
Mon 10:41:58 AM 30.7572 -84.1375 167° South 482 555 35,000  Level Jacksonville Center
Mon 10:42:58 AM 30.6283 -84.1044 168° South 482 555 35,000  Level Jacksonville Center
Mon 10:43:58 AM 30.5011 -84.0692 167° South 482 555 35,000  Level Jacksonville Center
Mon 10:44:58 AM 30.3719 -84.0386 168° South 476 548 35,000  Level Jacksonville Center
Mon 10:45:58 AM 30.2408 -84.0033 167° South 476 548 35,000 -350 Level Jacksonville Center
Mon 10:46:58 AM 30.1117 -83.9708 168° South 476 548 34,300 -800 Descending Jacksonville Center
Mon 10:47:58 AM 29.9844 -83.9381 167° South 476 548 33,400 -1,000 Descending Jacksonville Center
Mon 10:48:58 AM 29.8617 -83.9056 167° South 468 539 32,300 -1,000 Descending Jacksonville Center
Mon 10:49:58 AM 29.7431 -83.8469 157° South 463 533 31,400 -1,000 Descending Jacksonville Center
Mon 10:50:58 AM 29.6225 -83.7694 151° Southeast 478 550 30,300 -1,100 Descending Jacksonville Center
Mon 10:51:58 AM 29.5125 -83.6992 151° Southeast 495 570 29,200 -1,050 Descending Jacksonville Center
Mon 10:52:58 AM 29.3958 -83.6219 150° Southeast 490 564 28,200 -1,000 Descending Jacksonville Center
Mon 10:53:58 AM 29.2794 -83.5472 151° Southeast 483 556 27,200 -1,050 Descending Jacksonville Center
Mon 10:54:58 AM 29.1650 -83.4728 150° Southeast 478 550 26,100 -1,750 Descending Jacksonville Center
Mon 10:55:58 AM 29.0547 -83.4056 152° Southeast 472 543 23,700 -2,250 Descending Jacksonville Center
Mon 10:56:58 AM 28.9422 -83.3364 152° Southeast 462 532 21,600 -2,150 Descending Jacksonville Center
Mon 10:57:58 AM 28.8381 -83.2694 151° Southeast 448 516 19,400 -2,119 Descending Jacksonville Center
Mon 11:00:19 AM 28.5833 -83.1167 152° Southeast 402 463 14,500 -1,933 Descending Tampa TRACON
Mon 11:01:26 AM 28.4833 -83.0500 150° Southeast 391 450 12,700 -1,537 Descending Tampa TRACON
Mon 11:02:20 AM 28.4000 -83.0000 152° Southeast 364 419 11,400 -1,211 Descending Tampa TRACON
Mon 11:03:20 AM 28.3167 -82.9667 161° South 307 353 10,400 -1,200 Descending Tampa TRACON
Mon 11:04:20 AM 28.2500 -82.9333 156° South 288 331 9,000 -1,476 Descending Tampa TRACON
Mon 11:05:26 AM 28.1667 -82.9167 170° South 280 322 7,300 -1,667 Descending Tampa TRACON
Mon 11:06:26 AM 28.0833 -82.8667 152° Southeast 287 330 5,500 -1,474 Descending Tampa TRACON
Mon 11:07:20 AM 28.0333 -82.8333 150° Southeast 272 313 4,500 -1,100 Descending Tampa TRACON
Mon 11:08:26 AM 27.9667 -82.8000 156° South 227 261 3,300 -952 Descending Tampa TRACON
Mon 11:09:26 AM 27.9167 -82.7667 149° Southeast 185 213 2,500 -800 Descending Tampa TRACON
Mon 11:10:26 AM 27.8667 -82.7500 164° South 177 204 1,700 -750 Descending Tampa TRACON
Mon 11:11:26 AM 27.8667 -82.7000 90° East 172 198 1,000 -700 Descending Tampa TRACON

Login

Don't have an account? Register now (free) for customized features, flight alerts, and more!